Time;durP1;ratioP1;P1;durP2;ratioP2;P2;SDS_P1;SDS_P2;PMS_P1;PMS_P2;Temp;Humidity;BMP_temperature;BMP_pressure;BME280_temperature;BME280_humidity;BME280_pressure;Samples;Min_cycle;Max_cycle;Signal;HPM_P1;HPM_P2
2022/01/24 00:01:08;;;;;;;7.10;5.28;;;6.70;99.90;;;;;;5127609;27;20710;-74
2022/01/24 00:03:34;;;;;;;6.85;5.32;;;6.60;99.90;;;;;;5110589;27;20034;-73
2022/01/24 00:05:59;;;;;;;6.80;4.60;;;6.60;99.90;;;;;;5084071;27;20047;-75
2022/01/24 00:08:25;;;;;;;5.25;4.47;;;6.80;99.90;;;;;;5122507;27;20050;-73
2022/01/24 00:10:53;;;;;;;6.13;4.60;;;6.70;99.90;;;;;;5073938;27;20110;-74
2022/01/24 00:16:20;;;;;;;6.47;5.25;;;6.80;99.90;;;;;;5119917;27;20126;-77
2022/01/24 00:26:56;;;;;;;5.05;4.53;;;7.20;99.90;;;;;;5106785;27;20061;-75
2022/01/24 00:29:23;;;;;;;5.03;4.50;;;6.60;99.90;;;;;;5097481;27;20043;-75
2022/01/24 00:31:50;;;;;;;6.78;5.10;;;6.80;99.90;;;;;;5124102;27;20058;-75
2022/01/24 00:34:17;;;;;;;5.90;4.68;;;6.50;99.90;;;;;;5100183;27;20059;-77
2022/01/24 00:36:47;;;;;;;5.97;4.63;;;6.50;99.90;;;;;;5135001;27;20073;-75
2022/01/24 00:39:13;;;;;;;5.85;4.38;;;6.50;99.90;;;;;;5114706;27;20031;-75
2022/01/24 00:42:01;;;;;;;6.20;4.35;;;6.50;99.90;;;;;;5102965;27;20039;-75
2022/01/24 00:47:01;;;;;;;5.97;4.90;;;6.80;99.90;;;;;;5134301;27;20042;-76
2022/01/24 00:54:52;;;;;;;5.95;4.32;;;6.50;99.90;;;;;;5124863;27;20043;-76
2022/01/24 00:57:21;;;;;;;5.97;4.07;;;6.80;99.90;;;;;;5116759;27;20084;-76
2022/01/24 00:59:48;;;;;;;5.88;4.28;;;6.60;99.90;;;;;;5117203;27;20034;-77
2022/01/24 01:02:15;;;;;;;5.82;4.13;;;6.50;99.90;;;;;;5116261;27;20052;-76
2022/01/24 01:18:22;;;;;;;4.80;4.10;;;6.70;99.90;;;;;;5118140;27;20054;-75
2022/01/24 01:21:10;;;;;;;4.93;4.25;;;6.60;99.90;;;;;;5115812;27;20039;-76
2022/01/24 01:23:40;;;;;;;5.65;4.78;;;6.50;99.90;;;;;;5097584;27;20042;-76
2022/01/24 01:26:13;;;;;;;7.10;5.10;;;6.30;99.90;;;;;;5101001;27;20084;-74
2022/01/24 01:28:42;;;;;;;6.90;4.68;;;6.60;99.90;;;;;;5131013;27;20035;-76
2022/01/24 01:31:15;;;;;;;5.93;4.50;;;6.30;99.90;;;;;;5130435;27;20127;-75
2022/01/24 01:36:27;;;;;;;8.57;4.70;;;6.80;99.90;;;;;;5116307;27;20386;-75
2022/01/24 01:57:38;;;;;;;5.60;4.60;;;6.50;99.90;;;;;;5132416;27;20474;-74
2022/01/24 02:00:08;;;;;;;7.47;4.53;;;6.30;99.90;;;;;;5132964;27;20041;-75
2022/01/24 02:02:34;;;;;;;5.43;4.18;;;6.50;99.90;;;;;;5114708;27;20038;-77
2022/01/24 02:05:00;;;;;;;5.25;4.55;;;6.20;99.90;;;;;;5117314;27;20041;-77
2022/01/24 02:07:26;;;;;;;5.90;4.70;;;6.30;99.90;;;;;;5115613;27;20045;-77
2022/01/24 02:09:52;;;;;;;5.72;4.25;;;6.50;99.90;;;;;;5115080;27;20061;-77
2022/01/24 02:12:20;;;;;;;5.85;4.50;;;6.40;99.90;;;;;;5098584;27;20094;-77
2022/01/24 02:14:52;;;;;;;6.47;4.65;;;6.50;99.90;;;;;;5089478;27;20038;-76
2022/01/24 02:17:27;;;;;;;5.53;4.22;;;6.50;99.90;;;;;;5116910;27;20434;-74
2022/01/24 02:25:05;;;;;;;7.13;5.43;;;6.00;99.90;;;;;;5117647;27;20130;-75
2022/01/24 02:27:42;;;;;;;6.45;4.95;;;6.30;99.90;;;;;;5115800;27;20053;-76
2022/01/24 02:30:27;;;;;;;6.95;5.22;;;6.00;99.90;;;;;;5095871;27;20038;-75
2022/01/24 02:32:55;;;;;;;6.47;4.88;;;5.90;99.90;;;;;;5115318;27;20058;-75
2022/01/24 02:35:21;;;;;;;7.68;5.35;;;6.10;99.90;;;;;;5115861;27;20501;-75
2022/01/24 02:37:46;;;;;;;6.00;4.80;;;6.20;99.90;;;;;;5099122;27;20031;-76
2022/01/24 02:40:16;;;;;;;6.82;4.82;;;6.20;99.90;;;;;;5096794;27;20039;-76
2022/01/24 02:48:27;;;;;;;6.68;4.97;;;5.90;99.90;;;;;;5103162;27;20728;-75
2022/01/24 02:53:34;;;;;;;6.30;4.90;;;5.80;99.90;;;;;;5131972;27;20039;-76
2022/01/24 02:56:00;;;;;;;6.15;5.00;;;6.10;99.90;;;;;;5131984;27;20066;-76
2022/01/24 02:58:26;;;;;;;6.93;5.22;;;6.00;99.90;;;;;;5114660;27;20057;-75
2022/01/24 03:00:53;;;;;;;6.22;5.22;;;6.10;99.90;;;;;;5131898;27;20034;-75
2022/01/24 03:03:19;;;;;;;6.63;4.13;;;6.00;99.90;;;;;;5112899;28;20043;-76
2022/01/24 03:05:45;;;;;;;6.65;4.93;;;6.10;99.90;;;;;;5112722;27;20091;-76
2022/01/24 03:08:13;;;;;;;5.95;4.65;;;5.80;99.90;;;;;;5111171;27;20035;-75
2022/01/24 03:10:43;;;;;;;6.35;4.75;;;5.70;99.90;;;;;;5131948;27;20510;-75
2022/01/24 03:15:39;;;;;;;6.47;5.30;;;5.80;99.90;;;;;;5114959;27;20107;-75
2022/01/24 03:18:06;;;;;;;8.85;5.22;;;5.90;99.90;;;;;;5130979;27;20153;-75
2022/01/24 03:20:32;;;;;;;6.53;4.88;;;5.90;99.90;;;;;;5131618;27;20118;-75
2022/01/24 03:22:58;;;;;;;6.50;4.88;;;6.00;99.90;;;;;;5122697;27;20033;-76
2022/01/24 03:25:24;;;;;;;7.13;5.45;;;6.00;99.90;;;;;;5114828;27;20130;-76
2022/01/24 03:27:50;;;;;;;7.10;5.50;;;5.80;99.90;;;;;;5120194;27;20038;-76
2022/01/24 03:30:15;;;;;;;8.27;5.78;;;5.70;99.90;;;;;;5137379;27;20446;-76
2022/01/24 03:32:41;;;;;;;6.95;5.32;;;5.90;99.90;;;;;;5119158;27;20055;-76
2022/01/24 03:35:07;;;;;;;6.93;5.15;;;5.80;99.90;;;;;;5136721;27;20055;-76
2022/01/24 03:37:37;;;;;;;8.00;5.55;;;5.70;99.90;;;;;;5136906;27;20040;-76
2022/01/24 03:40:08;;;;;;;5.80;4.80;;;5.70;99.90;;;;;;5120158;27;20398;-76
2022/01/24 03:42:34;;;;;;;7.15;5.47;;;5.90;99.90;;;;;;5116342;27;20039;-76
2022/01/24 03:45:03;;;;;;;6.93;5.53;;;5.70;99.90;;;;;;5130304;27;20677;-76
2022/01/24 03:50:17;;;;;;;8.68;5.93;;;5.90;99.90;;;;;;5137222;27;20115;-75
2022/01/24 03:52:44;;;;;;;10.48;5.88;;;5.70;99.90;;;;;;5104503;27;20039;-76
2022/01/24 03:55:10;;;;;;;7.93;5.78;;;5.90;99.90;;;;;;5135440;27;20035;-75
2022/01/24 03:57:37;;;;;;;10.10;6.82;;;5.90;99.90;;;;;;5135872;27;20546;-76
2022/01/24 04:00:05;;;;;;;8.15;6.45;;;5.60;99.90;;;;;;5136538;27;20038;-75
2022/01/24 04:02:31;;;;;;;7.55;6.00;;;5.90;99.90;;;;;;5118839;27;20095;-76
2022/01/24 04:04:56;;;;;;;8.52;6.15;;;5.90;99.90;;;;;;5119389;27;20048;-75
2022/01/24 04:07:22;;;;;;;8.18;5.72;;;5.80;99.90;;;;;;5119526;27;20039;-76
2022/01/24 04:09:49;;;;;;;8.40;5.75;;;6.00;99.90;;;;;;5101984;27;20046;-76
2022/01/24 04:12:15;;;;;;;8.95;6.22;;;6.30;99.90;;;;;;5102772;27;20038;-77
2022/01/24 04:14:56;;;;;;;8.02;5.78;;;6.00;99.90;;;;;;5135509;27;20050;-76
2022/01/24 04:17:25;;;;;;;9.23;6.63;;;6.20;99.90;;;;;;5136821;27;20061;-77
2022/01/24 04:22:23;;;;;;;9.45;6.75;;;6.00;99.90;;;;;;5136568;27;20130;-77
2022/01/24 04:24:50;;;;;;;9.40;6.70;;;6.00;99.90;;;;;;5135228;27;20038;-76
2022/01/24 04:27:16;;;;;;;9.52;6.28;;;5.90;99.90;;;;;;5093486;27;20126;-75
2022/01/24 04:29:42;;;;;;;7.80;5.90;;;5.70;99.90;;;;;;5116083;27;20038;-76
2022/01/24 04:32:09;;;;;;;9.95;6.60;;;5.80;99.90;;;;;;5113086;27;20565;-76
2022/01/24 04:34:35;;;;;;;9.13;6.63;;;6.40;99.90;;;;;;5098139;27;20100;-76
2022/01/24 04:37:01;;;;;;;9.75;7.20;;;5.80;99.90;;;;;;5099421;27;20031;-76
2022/01/24 04:39:27;;;;;;;9.40;6.68;;;6.00;99.90;;;;;;5098591;27;20034;-76
2022/01/24 04:41:57;;;;;;;9.30;6.72;;;6.00;99.90;;;;;;5108754;27;20468;-77
2022/01/24 04:55:04;;;;;;;9.05;6.05;;;6.00;99.90;;;;;;5134775;27;20078;-79
2022/01/24 04:57:30;;;;;;;9.40;7.03;;;5.90;99.90;;;;;;5134084;27;20039;-78
2022/01/24 04:59:58;;;;;;;10.55;7.20;;;5.90;99.90;;;;;;5134895;27;20034;-77
2022/01/24 05:02:26;;;;;;;9.32;6.88;;;6.10;99.90;;;;;;5121955;27;20049;-76
2022/01/24 05:04:53;;;;;;;12.57;8.13;;;5.90;99.90;;;;;;5135318;27;20395;-77
2022/01/24 05:07:19;;;;;;;11.25;7.00;;;5.90;99.90;;;;;;5133908;27;20050;-76
2022/01/24 05:09:56;;;;;;;10.60;6.82;;;6.10;99.90;;;;;;5133582;27;20043;-77
2022/01/24 05:25:54;;;;;;;11.27;7.85;;;5.80;99.90;;;;;;5133415;27;20047;-76
2022/01/24 05:28:20;;;;;;;11.55;8.23;;;5.90;99.90;;;;;;5132064;27;20070;-76
2022/01/24 05:30:47;;;;;;;11.63;7.60;;;5.90;99.90;;;;;;5132561;27;20133;-76
2022/01/24 05:33:13;;;;;;;10.55;7.60;;;6.00;99.90;;;;;;5133942;27;20047;-76
2022/01/24 05:35:38;;;;;;;10.98;7.72;;;5.90;99.90;;;;;;5116503;27;20054;-77
2022/01/24 05:38:05;;;;;;;14.18;8.10;;;6.10;99.90;;;;;;5134304;27;20039;-77
2022/01/24 05:40:31;;;;;;;13.43;8.02;;;5.80;99.90;;;;;;5134096;27;20086;-75
2022/01/24 05:42:57;;;;;;;13.52;8.95;;;6.10;99.90;;;;;;5116258;27;20035;-76
2022/01/24 05:45:22;;;;;;;12.35;8.02;;;6.10;99.90;;;;;;5117020;27;20087;-75
2022/01/24 05:47:48;;;;;;;14.43;8.18;;;6.30;99.90;;;;;;5133111;27;20038;-76
2022/01/24 05:50:14;;;;;;;12.60;8.60;;;5.80;99.90;;;;;;5116776;27;20126;-76
2022/01/24 05:52:40;;;;;;;11.32;8.02;;;6.00;99.90;;;;;;5114794;27;20038;-76
2022/01/24 05:55:06;;;;;;;13.50;8.80;;;5.80;99.90;;;;;;5116336;27;20065;-77
2022/01/24 05:57:32;;;;;;;15.07;9.80;;;5.80;99.90;;;;;;5133623;27;20039;-76
2022/01/24 05:59:59;;;;;;;15.48;10.15;;;6.30;99.90;;;;;;5132081;27;20041;-75
2022/01/24 06:02:26;;;;;;;16.55;10.57;;;5.80;99.90;;;;;;5097384;27;20039;-76
2022/01/24 06:04:52;;;;;;;13.95;9.32;;;5.80;99.90;;;;;;5094234;27;20134;-76
2022/01/24 06:07:18;;;;;;;13.43;9.43;;;6.20;99.90;;;;;;5129854;27;20046;-76
2022/01/24 06:09:44;;;;;;;14.88;9.85;;;6.10;99.90;;;;;;5115247;27;20050;-76
2022/01/24 06:12:10;;;;;;;15.40;10.27;;;6.00;99.90;;;;;;5097639;27;20509;-76
2022/01/24 06:14:36;;;;;;;15.48;9.93;;;6.00;99.90;;;;;;5115940;27;20035;-77
2022/01/24 06:17:02;;;;;;;12.65;8.77;;;6.10;99.90;;;;;;5126114;27;20046;-75
2022/01/24 06:19:28;;;;;;;15.65;9.85;;;5.80;99.90;;;;;;5084978;27;20402;-77
2022/01/24 06:21:54;;;;;;;13.50;9.02;;;6.10;99.90;;;;;;5133881;27;20037;-76
2022/01/24 06:24:19;;;;;;;14.85;9.63;;;6.20;99.90;;;;;;5117079;27;20467;-77
2022/01/24 06:26:46;;;;;;;16.05;9.98;;;5.80;99.90;;;;;;5116490;27;20031;-76
2022/01/24 06:29:12;;;;;;;18.05;11.00;;;6.30;99.90;;;;;;5133531;27;20473;-76
2022/01/24 06:31:38;;;;;;;15.25;10.80;;;5.80;99.90;;;;;;5114223;27;20059;-76
2022/01/24 06:34:05;;;;;;;15.90;10.57;;;6.10;99.90;;;;;;5133015;27;20050;-77
2022/01/24 06:36:31;;;;;;;15.18;10.05;;;5.80;99.90;;;;;;5116904;27;20035;-76
2022/01/24 06:38:57;;;;;;;15.82;10.10;;;6.10;99.90;;;;;;5116020;27;20035;-77
2022/01/24 06:41:30;;;;;;;13.93;9.50;;;6.10;99.90;;;;;;5131795;27;20038;-76
2022/01/24 06:43:55;;;;;;;14.23;10.00;;;6.00;99.90;;;;;;5099653;27;20721;-77
2022/01/24 06:46:21;;;;;;;16.48;10.02;;;5.90;99.90;;;;;;5132320;27;20046;-77
2022/01/24 06:48:47;;;;;;;12.45;9.05;;;5.80;99.90;;;;;;5133924;27;20374;-77
2022/01/24 06:51:12;;;;;;;15.65;10.73;;;5.90;99.90;;;;;;5095827;27;20043;-77
2022/01/24 06:53:39;;;;;;;14.32;10.10;;;5.90;99.90;;;;;;5078912;28;20046;-76
2022/01/24 06:56:06;;;;;;;15.00;9.35;;;5.90;99.90;;;;;;5110573;27;20130;-78
2022/01/24 06:58:35;;;;;;;14.07;9.27;;;6.10;99.90;;;;;;5115622;27;20103;-75
2022/01/24 07:01:01;;;;;;;14.02;9.50;;;6.10;99.90;;;;;;5079225;27;20041;-77
2022/01/24 07:03:28;;;;;;;17.92;11.43;;;5.80;99.90;;;;;;5111462;27;20034;-76
2022/01/24 07:05:53;;;;;;;14.02;9.27;;;6.10;99.90;;;;;;5114048;28;20050;-76
2022/01/24 07:08:19;;;;;;;13.10;8.45;;;5.90;99.90;;;;;;5113697;28;20046;-77
2022/01/24 07:10:46;;;;;;;14.15;9.45;;;5.80;99.90;;;;;;5098984;27;20050;-77
2022/01/24 07:13:12;;;;;;;13.90;9.18;;;5.90;99.90;;;;;;5134136;27;20075;-77
2022/01/24 07:15:47;;;;;;;13.30;9.77;;;5.90;99.90;;;;;;5116733;27;20368;-77
2022/01/24 07:20:58;;;;;;;14.32;9.38;;;5.80;99.90;;;;;;5131948;27;20559;-78
2022/01/24 07:23:24;;;;;;;15.43;10.13;;;6.10;99.90;;;;;;5114907;27;20137;-77
2022/01/24 07:25:50;;;;;;;15.07;10.30;;;5.80;99.90;;;;;;5100051;28;20057;-77
2022/01/24 07:28:17;;;;;;;16.83;10.15;;;5.90;99.90;;;;;;5116335;27;20046;-78
2022/01/24 07:30:44;;;;;;;13.68;9.02;;;6.10;99.90;;;;;;5132810;27;20038;-78
2022/01/24 07:33:10;;;;;;;13.77;8.85;;;5.80;99.90;;;;;;5116848;27;20138;-78
2022/01/24 07:35:38;;;;;;;12.75;9.35;;;5.80;99.90;;;;;;5116850;27;20047;-74
2022/01/24 07:38:05;;;;;;;11.82;8.52;;;6.10;99.90;;;;;;5115806;27;20058;-77
2022/01/24 07:40:37;;;;;;;15.07;9.63;;;6.00;99.90;;;;;;5133589;27;20035;-78
2022/01/24 07:43:12;;;;;;;16.13;9.52;;;5.90;99.90;;;;;;5116949;27;20039;-77
2022/01/24 07:45:39;;;;;;;;;;;6.10;99.90;;;;;;5116748;27;20127;-77
2022/01/24 07:48:05;;;;;;;12.68;9.05;;;5.90;99.90;;;;;;5132797;27;20472;-77
2022/01/24 07:50:35;;;;;;;17.38;10.25;;;6.10;99.90;;;;;;5116360;27;20038;-77
2022/01/24 07:53:01;;;;;;;13.82;9.20;;;6.00;99.90;;;;;;5116293;27;20038;-77
2022/01/24 07:55:27;;;;;;;13.32;9.48;;;5.90;99.90;;;;;;5082701;27;20050;-75
2022/01/24 07:57:53;;;;;;;11.35;8.75;;;6.30;99.90;;;;;;5114748;28;20031;-75
2022/01/24 08:00:19;;;;;;;11.23;7.80;;;6.10;99.90;;;;;;5096024;28;20054;-76
2022/01/24 08:02:44;;;;;;;14.10;9.07;;;6.10;99.90;;;;;;5132719;27;20035;-75
2022/01/24 08:05:10;;;;;;;13.95;9.00;;;6.10;99.90;;;;;;5133851;27;20080;-76
2022/01/24 08:07:38;;;;;;;15.35;9.98;;;5.80;99.90;;;;;;5136698;27;20042;-77
2022/01/24 08:10:05;;;;;;;14.43;10.45;;;6.10;99.90;;;;;;5086651;27;20124;-77
2022/01/24 08:12:32;;;;;;;13.98;10.45;;;5.90;99.90;;;;;;5099818;27;20035;-76
2022/01/24 08:15:02;;;;;;;16.20;11.05;;;6.10;99.90;;;;;;5119303;27;20035;-76
2022/01/24 08:17:28;;;;;;;14.95;10.60;;;5.80;99.90;;;;;;5136180;27;20122;-76
2022/01/24 08:19:54;;;;;;;14.90;10.38;;;6.20;99.90;;;;;;5136097;27;20134;-77
2022/01/24 08:22:19;;;;;;;13.07;10.02;;;5.90;99.90;;;;;;5102233;27;20562;-77
2022/01/24 08:24:46;;;;;;;12.10;8.40;;;6.20;99.90;;;;;;5135765;27;20058;-76
2022/01/24 08:27:15;;;;;;;15.15;9.20;;;5.90;99.90;;;;;;5119065;27;20039;-77
2022/01/24 08:29:43;;;;;;;12.95;8.85;;;5.90;99.90;;;;;;5114726;27;20046;-76
2022/01/24 08:32:09;;;;;;;13.55;9.05;;;6.10;99.90;;;;;;5113744;27;20051;-77
2022/01/24 08:34:35;;;;;;;12.38;9.00;;;5.90;99.90;;;;;;5099313;27;20046;-78
2022/01/24 08:37:01;;;;;;;12.50;8.50;;;6.20;99.90;;;;;;5117087;27;20038;-78
2022/01/24 08:39:27;;;;;;;12.40;9.13;;;6.10;99.90;;;;;;5117729;27;20035;-77
2022/01/24 08:44:31;;;;;;;14.40;9.25;;;5.90;99.90;;;;;;5135027;27;20042;-77
2022/01/24 08:46:58;;;;;;;13.10;8.93;;;5.90;99.90;;;;;;5114043;27;20042;-78
2022/01/24 08:49:24;;;;;;;11.38;8.93;;;6.00;99.90;;;;;;5113953;27;20080;-77
2022/01/24 08:51:50;;;;;;;12.95;9.23;;;6.20;99.90;;;;;;5116119;27;20423;-76
2022/01/24 08:54:15;;;;;;;14.52;9.52;;;6.20;99.90;;;;;;5118095;27;20053;-75
2022/01/24 08:56:41;;;;;;;15.70;10.73;;;6.20;99.90;;;;;;5132817;27;20037;-76
2022/01/24 08:59:07;;;;;;;13.30;9.50;;;6.20;99.90;;;;;;5116150;27;20042;-74
2022/01/24 09:01:34;;;;;;;13.32;9.95;;;6.20;99.90;;;;;;5116547;27;20034;-74
2022/01/24 09:04:00;;;;;;;18.30;10.95;;;5.90;99.90;;;;;;5100513;27;20050;-74
2022/01/24 09:06:27;;;;;;;16.08;10.02;;;6.10;99.90;;;;;;5098473;27;20047;-73
2022/01/24 09:08:56;;;;;;;16.13;10.45;;;6.10;99.90;;;;;;5117002;27;20091;-74
2022/01/24 09:11:34;;;;;;;14.57;10.07;;;6.00;99.90;;;;;;5099271;27;20046;-75
2022/01/24 09:14:01;;;;;;;17.27;11.23;;;5.90;99.90;;;;;;5115532;27;20039;-75
2022/01/24 09:16:26;;;;;;;15.90;9.73;;;6.30;99.90;;;;;;5130865;27;20030;-74
2022/01/24 09:18:53;;;;;;;14.77;9.93;;;6.00;99.90;;;;;;5112600;27;20095;-76
2022/01/24 09:21:19;;;;;;;14.23;9.77;;;6.00;99.90;;;;;;5125084;27;20043;-77
2022/01/24 09:23:45;;;;;;;14.77;9.35;;;6.30;99.90;;;;;;5116850;27;20386;-75
2022/01/24 09:26:10;;;;;;;13.98;9.38;;;6.30;99.90;;;;;;5095551;27;20043;-76
2022/01/24 09:28:36;;;;;;;16.00;10.60;;;6.30;99.90;;;;;;5097470;27;20046;-74
2022/01/24 09:31:02;;;;;;;18.52;11.68;;;6.10;99.90;;;;;;5124919;27;20046;-76
2022/01/24 09:33:28;;;;;;;17.48;11.07;;;6.20;99.90;;;;;;5122771;27;20050;-75
2022/01/24 09:35:59;;;;;;;15.60;11.55;;;6.10;99.90;;;;;;5089691;27;20063;-75
2022/01/24 09:38:32;;;;;;;17.13;11.43;;;6.10;99.90;;;;;;5099482;27;20289;-76
2022/01/24 09:41:00;;;;;;;17.20;11.63;;;6.00;99.90;;;;;;5096113;27;20125;-76
2022/01/24 09:43:26;;;;;;;16.05;10.18;;;6.20;99.90;;;;;;5123266;27;20043;-77
2022/01/24 09:45:52;;;;;;;16.10;11.00;;;6.20;99.90;;;;;;5085559;27;20047;-76
2022/01/24 09:48:19;;;;;;;14.50;9.73;;;6.10;99.90;;;;;;5111058;27;20043;-75
2022/01/24 09:50:46;;;;;;;15.80;10.07;;;6.30;99.90;;;;;;5089611;27;20160;-76
2022/01/24 09:53:16;;;;;;;16.70;11.00;;;6.10;99.90;;;;;;5090372;27;20043;-78
2022/01/24 09:55:41;;;;;;;16.38;11.05;;;6.00;99.90;;;;;;5096284;27;20118;-74
2022/01/24 09:58:07;;;;;;;17.08;11.23;;;6.30;99.90;;;;;;5099037;27;20027;-75
2022/01/24 10:00:33;;;;;;;16.67;11.40;;;6.00;99.90;;;;;;5123653;27;20026;-74
2022/01/24 10:03:00;;;;;;;15.15;10.30;;;6.20;99.90;;;;;;5123089;27;20030;-75
2022/01/24 10:05:30;;;;;;;17.60;11.75;;;6.00;99.90;;;;;;5083359;27;20158;-77
2022/01/24 10:08:02;;;;;;;17.80;11.77;;;6.10;99.90;;;;;;5117308;27;20043;-77
2022/01/24 10:10:34;;;;;;;19.35;12.52;;;6.10;99.90;;;;;;5122340;27;20052;-75
2022/01/24 10:19:02;;;;;;;19.08;12.88;;;6.10;99.90;;;;;;5110666;27;20879;-76
2022/01/24 10:21:28;;;;;;;19.13;11.95;;;6.30;99.90;;;;;;5121763;27;20066;-75
2022/01/24 10:23:55;;;;;;;18.23;12.50;;;6.20;99.90;;;;;;5108152;27;20066;-76
2022/01/24 10:26:24;;;;;;;20.58;12.95;;;6.20;99.90;;;;;;5110478;27;20046;-77
2022/01/24 10:28:50;;;;;;;19.75;12.82;;;6.10;99.90;;;;;;5128151;27;20780;-76
2022/01/24 10:31:28;;;;;;;20.38;13.65;;;6.70;99.90;;;;;;5110313;27;20174;-77
2022/01/24 10:34:12;;;;;;;23.67;14.65;;;6.30;99.90;;;;;;5110211;27;20046;-76
2022/01/24 10:37:02;;;;;;;19.90;12.75;;;6.30;99.90;;;;;;5110802;27;20039;-77
2022/01/24 10:39:43;;;;;;;21.70;13.93;;;6.20;99.90;;;;;;5110293;27;20034;-80
2022/01/24 10:45:00;;;;;;;20.98;14.25;;;6.30;99.90;;;;;;5128981;27;20161;-81
2022/01/24 10:47:32;;;;;;;21.02;12.98;;;6.10;99.90;;;;;;5127281;27;20039;-81
2022/01/24 10:50:01;;;;;;;21.33;13.45;;;6.30;99.90;;;;;;5110049;27;20058;-80
2022/01/24 10:52:33;;;;;;;20.42;13.60;;;7.00;99.90;;;;;;5109936;27;20070;-74
2022/01/24 10:55:22;;;;;;;23.42;14.05;;;6.30;99.90;;;;;;5125218;27;20049;-75
2022/01/24 10:57:51;;;;;;;21.50;13.90;;;6.50;99.90;;;;;;5093694;27;20047;-75
2022/01/24 11:00:22;;;;;;;24.27;13.70;;;6.30;99.90;;;;;;5125675;27;20103;-75
2022/01/24 11:02:50;;;;;;;25.08;14.60;;;6.30;99.90;;;;;;5122872;28;20046;-73
2022/01/24 11:05:28;;;;;;;26.13;14.98;;;6.50;99.90;;;;;;5100178;27;20131;-74
2022/01/24 11:07:54;;;;;;;23.40;14.60;;;6.30;99.90;;;;;;5126037;27;20057;-75
2022/01/24 11:10:22;;;;;;;24.65;14.27;;;6.50;99.90;;;;;;5108735;27;20038;-75
2022/01/24 11:12:47;;;;;;;25.88;15.15;;;6.40;99.90;;;;;;5108953;27;20045;-74
2022/01/24 11:15:14;;;;;;;25.58;14.90;;;6.30;99.90;;;;;;5125213;27;20042;-75
2022/01/24 11:17:40;;;;;;;23.83;14.20;;;6.20;99.90;;;;;;5125887;27;20043;-75
2022/01/24 11:20:10;;;;;;;29.38;16.20;;;6.30;99.90;;;;;;5107909;27;20031;-74
2022/01/24 11:22:42;;;;;;;26.52;15.02;;;6.30;99.90;;;;;;5125759;27;20041;-75
2022/01/24 11:25:09;;;;;;;25.65;15.05;;;6.50;99.90;;;;;;5107982;27;20038;-75
2022/01/24 11:27:36;;;;;;;28.67;15.60;;;6.30;99.90;;;;;;5108774;27;20068;-75
2022/01/24 11:30:08;;;;;;;26.98;16.35;;;6.20;99.90;;;;;;5108092;27;20039;-76
2022/01/24 11:32:53;;;;;;;27.33;16.90;;;6.20;99.90;;;;;;5126844;27;20685;-82
2022/01/24 11:35:38;;;;;;;31.20;17.55;;;6.40;99.90;;;;;;5101817;27;20047;-75
2022/01/24 11:38:24;;;;;;;27.85;16.23;;;6.20;99.90;;;;;;5110490;27;20039;-81
2022/01/24 11:40:53;;;;;;;35.75;19.83;;;6.50;99.90;;;;;;5095049;27;20130;-75
2022/01/24 11:43:47;;;;;;;39.28;22.85;;;6.40;99.90;;;;;;5128462;27;20053;-76
2022/01/24 11:46:42;;;;;;;42.97;22.80;;;6.30;99.90;;;;;;5111691;27;20133;-74
2022/01/24 11:49:14;;;;;;;41.43;22.43;;;6.30;99.90;;;;;;5128157;27;20077;-76
2022/01/24 11:51:43;;;;;;;41.78;22.75;;;6.30;99.90;;;;;;5129856;27;20321;-75
2022/01/24 11:54:43;;;;;;;40.42;23.27;;;6.40;99.90;;;;;;5111911;27;20038;-76
2022/01/24 11:57:27;;;;;;;40.80;23.05;;;6.30;99.90;;;;;;5111651;27;20050;-74
2022/01/24 12:00:03;;;;;;;39.08;22.58;;;6.30;99.90;;;;;;5110435;27;20496;-77
2022/01/24 12:02:30;;;;;;;41.40;23.83;;;6.50;99.90;;;;;;5129548;27;20050;-76
2022/01/24 12:04:59;;;;;;;42.63;23.08;;;6.40;99.90;;;;;;5129132;27;20130;-75
2022/01/24 12:07:46;;;;;;;43.83;24.15;;;6.20;99.90;;;;;;5112100;27;20806;-77
2022/01/24 12:10:25;;;;;;;45.80;24.65;;;6.20;99.90;;;;;;5128139;27;20050;-76
2022/01/24 12:12:57;;;;;;;45.42;24.48;;;6.30;99.90;;;;;;5129693;27;20598;-76
2022/01/24 12:15:38;;;;;;;47.70;25.00;;;6.30;99.90;;;;;;5128084;27;20107;-76
2022/01/24 12:18:04;;;;;;;39.67;22.48;;;6.30;99.90;;;;;;5103135;27;20034;-75
2022/01/24 12:20:34;;;;;;;38.95;22.38;;;6.10;99.90;;;;;;5128443;27;20049;-76
2022/01/24 12:23:20;;;;;;;34.58;21.15;;;6.10;99.90;;;;;;5111410;27;20748;-78
2022/01/24 12:26:05;;;;;;;39.20;22.58;;;6.10;99.90;;;;;;5115178;27;20122;-77
2022/01/24 12:28:42;;;;;;;40.23;22.00;;;6.10;99.90;;;;;;5129340;27;20057;-75
2022/01/24 12:31:20;;;;;;;47.75;25.48;;;6.10;99.90;;;;;;5109937;27;20038;-76
2022/01/24 12:33:55;;;;;;;45.33;23.63;;;6.00;99.90;;;;;;5129123;27;20055;-75
2022/01/24 12:36:39;;;;;;;42.35;24.17;;;6.00;99.90;;;;;;5128447;27;20050;-76
2022/01/24 12:39:35;;;;;;;37.75;22.38;;;6.10;99.90;;;;;;5128070;27;20130;-76
2022/01/24 12:42:13;;;;;;;40.45;21.92;;;6.10;99.90;;;;;;5124425;27;20043;-76
2022/01/24 12:47:16;;;;;;;40.15;22.02;;;6.00;99.90;;;;;;5124022;27;20527;-76
2022/01/24 12:49:44;;;;;;;43.00;24.60;;;6.20;99.90;;;;;;5124375;27;20542;-77
2022/01/24 12:52:13;;;;;;;39.30;22.20;;;6.10;99.90;;;;;;5126771;27;20038;-77
2022/01/24 12:54:44;;;;;;;44.35;24.23;;;6.20;99.90;;;;;;5129001;27;20600;-77
2022/01/24 12:57:14;;;;;;;40.28;23.23;;;6.10;99.90;;;;;;5128092;27;20730;-76
2022/01/24 12:59:57;;;;;;;44.28;24.42;;;6.00;99.90;;;;;;5106534;27;20047;-75
2022/01/24 13:02:26;;;;;;;40.38;23.45;;;6.10;99.90;;;;;;5127028;27;20181;-77
2022/01/24 13:05:04;;;;;;;39.65;23.13;;;6.20;99.90;;;;;;5111137;27;20273;-77
2022/01/24 13:07:31;;;;;;;42.38;24.23;;;6.10;99.90;;;;;;5127263;27;20399;-76
2022/01/24 13:10:15;;;;;;;34.33;20.67;;;6.10;99.90;;;;;;5128696;27;20034;-77
2022/01/24 13:12:43;;;;;;;39.63;23.17;;;6.00;99.90;;;;;;5128270;27;20647;-76
2022/01/24 13:15:27;;;;;;;37.88;21.17;;;5.90;99.90;;;;;;5125685;27;20043;-76
2022/01/24 13:23:24;;;;;;;43.83;24.95;;;5.90;99.90;;;;;;5112271;27;20126;-77
2022/01/24 13:25:50;;;;;;;46.72;26.33;;;5.80;99.90;;;;;;5110888;27;20129;-75
2022/01/24 13:28:19;;;;;;;46.33;25.02;;;5.90;99.90;;;;;;5126620;27;20510;-75
2022/01/24 13:30:51;;;;;;;43.03;23.40;;;5.90;99.90;;;;;;5127562;27;20050;-75
2022/01/24 13:33:20;;;;;;;47.85;25.85;;;6.00;99.90;;;;;;5126412;27;20059;-75
2022/01/24 13:35:48;;;;;;;39.53;23.13;;;5.90;99.90;;;;;;5126844;27;20134;-75
2022/01/24 13:38:21;;;;;;;51.45;25.63;;;5.80;99.90;;;;;;5109520;27;20711;-74
2022/01/24 13:41:00;;;;;;;47.90;25.38;;;5.80;99.90;;;;;;5110098;27;20043;-77
2022/01/24 13:43:35;;;;;;;43.30;24.63;;;5.80;99.90;;;;;;5109060;27;20071;-74
2022/01/24 13:46:04;;;;;;;46.97;28.13;;;5.70;99.90;;;;;;5127075;27;20053;-77
2022/01/24 13:48:56;;;;;;;47.40;26.15;;;5.80;99.90;;;;;;5110276;27;20402;-75
2022/01/24 13:51:38;;;;;;;46.78;26.17;;;6.00;99.90;;;;;;5112235;27;20133;-75
2022/01/24 13:54:12;;;;;;;44.60;24.90;;;5.70;99.90;;;;;;5112864;27;20858;-75
2022/01/24 13:56:44;;;;;;;38.38;22.27;;;5.80;99.90;;;;;;5109625;27;20034;-73
2022/01/24 13:59:25;;;;;;;41.28;24.08;;;5.70;99.90;;;;;;5126229;27;20053;-76
2022/01/24 14:02:03;;;;;;;41.42;24.13;;;5.80;99.90;;;;;;5110092;27;20378;-76
2022/01/24 14:04:42;;;;;;;44.47;25.23;;;5.80;99.90;;;;;;5125954;27;20035;-78
2022/01/24 14:07:14;;;;;;;44.65;25.30;;;5.80;99.90;;;;;;5125852;27;20042;-75
2022/01/24 14:09:57;;;;;;;44.55;24.85;;;5.90;99.90;;;;;;5127152;27;20099;-74
2022/01/24 14:12:34;;;;;;;41.67;23.25;;;5.70;99.90;;;;;;5107794;27;20082;-76
2022/01/24 14:15:21;;;;;;;40.38;21.52;;;5.80;99.90;;;;;;5126612;27;20074;-75
2022/01/24 14:20:55;;;;;;;31.02;19.65;;;5.70;99.90;;;;;;5126931;27;20047;-76
2022/01/24 14:23:25;;;;;;;34.83;20.65;;;5.70;99.90;;;;;;5125925;27;20572;-76
2022/01/24 14:25:51;;;;;;;40.00;21.23;;;5.80;99.90;;;;;;5109742;27;20047;-75
2022/01/24 14:28:22;;;;;;;37.85;20.45;;;5.70;99.90;;;;;;5091051;27;20125;-75
2022/01/24 14:30:48;;;;;;;35.28;20.33;;;5.70;99.90;;;;;;5111460;27;20105;-75
2022/01/24 14:33:19;;;;;;;36.35;20.80;;;5.80;99.90;;;;;;5123000;27;20051;-76
2022/01/24 14:36:12;;;;;;;35.58;20.35;;;5.70;99.90;;;;;;5112912;27;20558;-76
2022/01/24 14:38:48;;;;;;;32.15;18.95;;;5.80;99.90;;;;;;5106031;27;20790;-78
2022/01/24 14:41:40;;;;;;;27.05;17.45;;;5.80;99.90;;;;;;5122598;27;20042;-77
2022/01/24 14:46:54;;;;;;;28.08;16.98;;;5.60;99.90;;;;;;5094650;28;20712;-72
2022/01/24 14:49:24;;;;;;;29.80;17.48;;;5.60;99.90;;;;;;5122163;27;20047;-76
2022/01/24 14:51:52;;;;;;;28.58;16.58;;;5.70;99.90;;;;;;5123024;27;20487;-75
2022/01/24 14:54:23;;;;;;;27.95;17.23;;;5.70;99.90;;;;;;5105012;27;20042;-76
2022/01/24 14:56:55;;;;;;;29.40;17.27;;;5.70;99.90;;;;;;5123172;27;20140;-77
2022/01/24 14:59:22;;;;;;;36.13;19.60;;;5.60;99.90;;;;;;5103519;28;20047;-74
2022/01/24 15:01:49;;;;;;;33.55;18.00;;;5.70;99.90;;;;;;5105761;28;20078;-75
2022/01/24 15:04:15;;;;;;;28.90;17.60;;;5.60;99.90;;;;;;5105081;28;20129;-74
2022/01/24 15:06:42;;;;;;;35.63;18.23;;;5.70;99.90;;;;;;5122964;28;20038;-76